createdAt,value
2018-03-25T00:02:38.304Z,-3.15
2018-03-25T00:07:40.974Z,-3.20
2018-03-25T00:12:43.511Z,-3.28
2018-03-25T00:17:46.132Z,-3.23
2018-03-25T00:22:48.685Z,-3.23
2018-03-25T00:27:51.228Z,-3.24
2018-03-25T00:32:53.713Z,-3.27
2018-03-25T00:37:56.182Z,-3.24
2018-03-25T00:42:58.704Z,-3.28
2018-03-25T00:48:01.569Z,-3.16
2018-03-25T00:53:04.081Z,-3.12
2018-03-25T00:58:06.543Z,-3.23
2018-03-25T01:03:09.103Z,-3.37
2018-03-25T01:08:11.608Z,-3.29
2018-03-25T01:13:14.160Z,-3.40
2018-03-25T01:18:16.725Z,-3.29
2018-03-25T01:23:19.402Z,-3.42
2018-03-25T01:28:21.886Z,-3.48
2018-03-25T01:33:24.354Z,-3.57
2018-03-25T01:38:26.856Z,-3.64
2018-03-25T01:43:29.371Z,-3.60
2018-03-25T01:48:31.868Z,-3.81
2018-03-25T01:53:34.318Z,-3.84
2018-03-25T01:58:36.777Z,-3.89
2018-03-25T02:03:39.452Z,-4.00
2018-03-25T02:08:42.166Z,-3.93
2018-03-25T02:13:44.683Z,-3.90
2018-03-25T02:18:47.184Z,-3.82
2018-03-25T02:23:49.668Z,-3.85
2018-03-25T02:28:52.240Z,-3.81
2018-03-25T02:33:54.702Z,-3.95
2018-03-25T02:38:57.177Z,-3.95
2018-03-25T02:43:59.642Z,-4.03
2018-03-25T02:49:02.110Z,-4.13
2018-03-25T02:54:04.603Z,-4.17
2018-03-25T02:59:07.128Z,-4.20
2018-03-25T03:04:09.682Z,-4.02
2018-03-25T03:09:12.222Z,-4.00
2018-03-25T03:14:14.766Z,-4.09
2018-03-25T03:19:17.284Z,-4.09
2018-03-25T03:24:19.761Z,-4.09
2018-03-25T03:29:22.221Z,-4.04
2018-03-25T03:34:24.703Z,-4.24
2018-03-25T03:39:27.210Z,-4.28
2018-03-25T03:44:29.692Z,-4.26
2018-03-25T03:49:32.704Z,-4.29
2018-03-25T03:54:35.200Z,-4.18
2018-03-25T03:59:37.780Z,-4.21
2018-03-25T04:04:40.394Z,-4.10
2018-03-25T04:09:42.918Z,-4.14
2018-03-25T04:14:45.433Z,-4.32
2018-03-25T04:19:48.151Z,-4.51
2018-03-25T04:24:50.626Z,-4.58
2018-03-25T04:29:53.147Z,-4.58
2018-03-25T04:34:55.965Z,-4.65
2018-03-25T04:39:58.461Z,-4.64
2018-03-25T04:45:00.920Z,-4.57
2018-03-25T04:50:03.377Z,-4.47
2018-03-25T04:55:05.838Z,-4.39
2018-03-25T05:00:08.362Z,-4.56
2018-03-25T05:05:10.885Z,-4.63
2018-03-25T05:10:13.548Z,-4.49
2018-03-25T05:15:16.034Z,-4.30
2018-03-25T05:20:18.545Z,-3.97
2018-03-25T05:25:21.065Z,-3.73
2018-03-25T05:30:23.655Z,-3.46
2018-03-25T05:35:26.111Z,-3.16
2018-03-25T05:40:28.590Z,-2.83
2018-03-25T05:45:31.084Z,-2.51
2018-03-25T05:50:33.565Z,-2.10
2018-03-25T05:55:36.766Z,-1.82
2018-03-25T06:00:39.282Z,-1.51
2018-03-25T06:05:41.803Z,-1.00
2018-03-25T06:10:44.316Z,-0.75
2018-03-25T06:15:46.901Z,-0.29
2018-03-25T06:20:49.382Z,-0.10
2018-03-25T06:25:51.847Z,0.17
2018-03-25T06:30:54.346Z,0.58
2018-03-25T06:35:56.816Z,0.90
2018-03-25T06:40:59.309Z,1.21
2018-03-25T06:46:01.784Z,1.51
2018-03-25T06:51:04.278Z,1.76
2018-03-25T06:56:06.798Z,1.95
2018-03-25T07:01:09.343Z,2.08
2018-03-25T07:06:11.966Z,2.29
2018-03-25T07:11:15.577Z,2.68
2018-03-25T07:16:18.056Z,2.95
2018-03-25T07:21:20.532Z,2.80
2018-03-25T07:26:23.024Z,3.09
2018-03-25T07:31:25.517Z,3.32
2018-03-25T07:36:28.029Z,3.54
2018-03-25T07:41:30.535Z,3.83
2018-03-25T07:46:33.043Z,3.94
2018-03-25T07:51:35.517Z,4.38
2018-03-25T07:56:38.161Z,4.29
2018-03-25T08:01:40.794Z,4.47
2018-03-25T08:06:43.321Z,4.69
2018-03-25T08:11:48.010Z,4.71
2018-03-25T08:16:50.525Z,5.13
2018-03-25T08:21:53.131Z,5.18
2018-03-25T08:26:55.618Z,5.10
2018-03-25T08:31:58.110Z,5.33
2018-03-25T08:37:00.561Z,5.59
2018-03-25T08:42:03.075Z,5.82
2018-03-25T08:47:05.600Z,5.99
2018-03-25T08:52:08.084Z,6.02
2018-03-25T08:57:10.613Z,6.11
2018-03-25T09:02:13.150Z,6.45
2018-03-25T09:07:15.869Z,6.78
2018-03-25T09:12:18.435Z,7.01
2018-03-25T09:17:20.914Z,7.28
2018-03-25T09:22:23.423Z,7.29
2018-03-25T09:27:26.854Z,7.46
2018-03-25T09:32:29.341Z,7.58
2018-03-25T09:37:31.873Z,8.00
2018-03-25T09:42:34.367Z,9.20
2018-03-25T09:47:36.889Z,12.03
2018-03-25T09:52:39.516Z,14.61
2018-03-25T09:57:42.030Z,15.25
2018-03-25T10:02:50.558Z,15.77
2018-03-25T10:07:53.168Z,15.69
2018-03-25T10:12:56.844Z,15.48
2018-03-25T10:17:59.365Z,15.51
2018-03-25T10:23:01.840Z,15.80
2018-03-25T10:28:04.327Z,16.21
2018-03-25T10:33:07.133Z,15.12
2018-03-25T10:38:09.771Z,15.52
2018-03-25T10:43:12.323Z,16.55
2018-03-25T10:48:14.984Z,15.96
2018-03-25T10:53:17.576Z,14.74
2018-03-25T10:58:20.105Z,14.51
2018-03-25T11:03:22.598Z,13.87
2018-03-25T11:08:25.088Z,13.76
2018-03-25T11:13:27.565Z,13.60
2018-03-25T11:18:30.059Z,13.44
2018-03-25T11:23:32.569Z,13.77
2018-03-25T11:28:35.047Z,13.57
2018-03-25T11:33:37.660Z,13.33
2018-03-25T11:38:40.237Z,13.75
2018-03-25T11:43:42.843Z,14.19
2018-03-25T11:48:45.466Z,14.03
2018-03-25T11:53:47.950Z,13.38
2018-03-25T11:58:50.466Z,13.00
2018-03-25T12:03:53.023Z,13.02
2018-03-25T12:08:55.498Z,13.51
2018-03-25T12:13:58.163Z,14.02
2018-03-25T12:19:01.592Z,14.18
2018-03-25T12:24:04.068Z,14.66
2018-03-25T12:29:06.596Z,13.89
2018-03-25T12:34:09.117Z,14.33
2018-03-25T12:39:11.692Z,14.86
2018-03-25T12:44:14.190Z,14.88
2018-03-25T12:49:16.688Z,14.89
2018-03-25T12:54:19.200Z,14.77
2018-03-25T12:59:22.110Z,14.39
2018-03-25T13:04:25.606Z,13.73
2018-03-25T13:09:28.104Z,13.02
2018-03-25T13:14:30.627Z,13.18
2018-03-25T13:19:33.184Z,14.08
2018-03-25T13:24:35.694Z,13.67
2018-03-25T13:29:39.417Z,12.80
2018-03-25T13:34:41.986Z,12.24
2018-03-25T13:39:44.480Z,12.71
2018-03-25T13:44:46.981Z,13.58
2018-03-25T13:49:49.494Z,13.53
2018-03-25T13:54:51.994Z,12.96
2018-03-25T13:59:54.475Z,13.14
2018-03-25T14:04:56.986Z,12.53
2018-03-25T14:10:00.271Z,12.97
2018-03-25T14:15:02.802Z,12.87
2018-03-25T14:20:05.319Z,12.57
2018-03-25T14:25:07.896Z,13.37
2018-03-25T14:30:10.486Z,13.61
2018-03-25T14:35:13.145Z,14.35
2018-03-25T14:40:15.659Z,13.92
2018-03-25T14:45:18.215Z,13.95
2018-03-25T14:50:20.741Z,14.25
2018-03-25T14:55:23.236Z,13.72
2018-03-25T15:00:25.715Z,14.06
2018-03-25T15:05:28.197Z,13.63
2018-03-25T15:10:30.710Z,14.03
2018-03-25T15:15:33.286Z,14.25
2018-03-25T15:20:35.763Z,13.89
2018-03-25T15:25:38.279Z,13.62
2018-03-25T15:30:40.877Z,13.22
2018-03-25T15:35:43.433Z,13.12
2018-03-25T15:40:45.950Z,13.26
2018-03-25T15:45:48.441Z,13.06
2018-03-25T15:50:50.943Z,13.45
2018-03-25T15:55:53.431Z,13.20
2018-03-25T16:00:56.500Z,12.92
2018-03-25T16:05:58.965Z,12.48
2018-03-25T16:11:01.470Z,12.33
2018-03-25T16:16:03.998Z,11.84
2018-03-25T16:21:06.567Z,11.48
2018-03-25T16:26:09.075Z,11.38
2018-03-25T16:31:11.647Z,11.26
2018-03-25T16:36:14.157Z,10.99
2018-03-25T16:41:16.720Z,10.72
2018-03-25T16:46:19.275Z,10.57
2018-03-25T16:51:21.778Z,10.32
2018-03-25T16:56:24.311Z,10.08
2018-03-25T17:01:26.824Z,9.79
2018-03-25T17:06:29.290Z,9.37
2018-03-25T17:11:31.745Z,9.09
2018-03-25T17:16:34.204Z,8.87
2018-03-25T17:21:36.724Z,8.58
2018-03-25T17:26:39.244Z,8.25
2018-03-25T17:31:41.781Z,8.26
2018-03-25T17:36:44.323Z,8.14
2018-03-25T17:41:46.785Z,7.73
2018-03-25T17:46:49.265Z,7.32
2018-03-25T17:51:52.337Z,6.86
2018-03-25T17:56:54.836Z,6.63
2018-03-25T18:01:57.364Z,6.38
2018-03-25T18:06:59.809Z,6.26
2018-03-25T18:12:02.295Z,6.28
2018-03-25T18:17:05.602Z,6.22
2018-03-25T18:22:08.195Z,6.28
2018-03-25T18:27:10.702Z,6.36
2018-03-25T18:32:13.204Z,6.30
2018-03-25T18:37:15.905Z,6.26
2018-03-25T18:42:18.377Z,6.33
2018-03-25T18:47:20.882Z,6.40
2018-03-25T18:52:23.582Z,6.41
2018-03-25T18:57:26.089Z,6.40
2018-03-25T19:02:28.621Z,6.47
2018-03-25T19:07:31.150Z,6.45
2018-03-25T19:12:33.724Z,6.39
2018-03-25T19:17:36.419Z,6.35
2018-03-25T19:22:40.002Z,6.26
2018-03-25T19:27:43.475Z,6.17
2018-03-25T19:32:46.124Z,6.17
2018-03-25T19:37:48.801Z,6.20
2018-03-25T19:42:52.756Z,6.26
2018-03-25T19:47:55.295Z,6.27
2018-03-25T19:52:57.773Z,6.24
2018-03-25T19:58:02.249Z,6.32
2018-03-25T20:03:04.721Z,6.35
2018-03-25T20:08:07.211Z,6.30
2018-03-25T20:13:09.680Z,6.22
2018-03-25T20:18:12.194Z,6.23
2018-03-25T20:23:14.668Z,6.50
2018-03-25T20:28:17.208Z,6.77
2018-03-25T20:33:19.687Z,6.78
2018-03-25T20:38:24.625Z,6.74
2018-03-25T20:43:27.213Z,6.65
2018-03-25T20:48:29.706Z,6.73
2018-03-25T20:53:34.516Z,6.83
2018-03-25T20:58:39.464Z,6.93
2018-03-25T21:03:42.082Z,7.05
2018-03-25T21:08:44.589Z,6.99
2018-03-25T21:13:47.270Z,6.95
2018-03-25T21:18:49.775Z,6.97
2018-03-25T21:23:52.262Z,6.95
2018-03-25T21:28:55.864Z,6.95
2018-03-25T21:34:00.764Z,6.88
2018-03-25T21:39:04.366Z,6.84
2018-03-25T21:44:11.128Z,6.77
2018-03-25T21:49:15.933Z,6.74
2018-03-25T21:54:20.301Z,6.73
2018-03-25T21:59:26.296Z,6.80
2018-03-25T22:04:31.570Z,6.78
2018-03-25T22:09:34.405Z,6.73
2018-03-25T22:14:36.917Z,6.75
2018-03-25T22:19:39.484Z,6.74
2018-03-25T22:24:41.987Z,6.67
2018-03-25T22:29:44.476Z,6.56
2018-03-25T22:34:47.011Z,6.59
2018-03-25T22:39:49.527Z,6.55
2018-03-25T22:44:52.001Z,6.54
2018-03-25T22:49:54.457Z,6.48
2018-03-25T22:54:56.933Z,6.47
2018-03-25T22:59:59.427Z,6.50
2018-03-25T23:05:01.908Z,6.53
2018-03-25T23:10:04.408Z,6.46
2018-03-25T23:15:06.893Z,6.46
2018-03-25T23:20:09.397Z,6.48
2018-03-25T23:25:11.885Z,6.49
2018-03-25T23:30:14.406Z,6.53
2018-03-25T23:35:17.017Z,6.51
2018-03-25T23:40:19.474Z,6.44
2018-03-25T23:45:21.926Z,6.42
2018-03-25T23:50:24.396Z,6.39
2018-03-25T23:55:26.876Z,6.38
